Time;durP1;ratioP1;P1;durP2;ratioP2;P2;SDS_P1;SDS_P2;PMS_P1;PMS_P2;Temp;Humidity;BMP_temperature;BMP_pressure;BME280_temperature;BME280_humidity;BME280_pressure;Samples;Min_cycle;Max_cycle;Signal;HPM_P1;HPM_P2
2022/10/24 05:58:10;;;;;;;3.83;1.73;;;;;;;;;;10514503;28;20419;-83
2022/10/24 06:03:11;;;;;;;3.33;1.70;;;;;;;;;;10495683;28;20401;-83
2022/10/24 06:08:12;;;;;;;3.88;1.80;;;;;;;;;;10498704;28;20048;-83
2022/10/24 06:13:13;;;;;;;4.03;1.98;;;;;;;;;;10499490;28;20468;-83
2022/10/24 06:18:14;;;;;;;2.78;1.80;;;;;;;;;;10493925;28;20025;-83
2022/10/24 06:23:15;;;;;;;;;;;;;;;;;;10497660;28;20503;-83
2022/10/24 06:28:19;;;;;;;4.65;2.08;;;;;;;;;;10497818;28;19905;-83
2022/10/24 06:33:20;;;;;;;4.47;2.08;;;;;;;;;;10500110;28;20059;-83
2022/10/24 06:38:21;;;;;;;6.18;2.00;;;;;;;;;;10501195;28;20021;-84
2022/10/24 06:43:22;;;;;;;;;;;;;;;;;;10502329;28;20056;-84
2022/10/24 06:48:23;;;;;;;3.53;2.08;;;;;;;;;;10501992;28;19915;-83
2022/10/24 06:53:24;;;;;;;4.75;2.13;;;;;;;;;;10501281;28;20123;-83
2022/10/24 06:58:28;;;;;;;3.42;2.00;;;;;;;;;;10502064;28;20115;-85
2022/10/24 07:03:30;;;;;;;4.22;2.15;;;;;;;;;;10500131;28;20024;-84
2022/10/24 07:08:31;;;;;;;3.88;1.70;;;;;;;;;;10475527;28;20037;-80
2022/10/24 07:13:32;;;;;;;3.30;1.80;;;;;;;;;;10470694;28;20033;-80
2022/10/24 07:18:33;;;;;;;4.45;2.35;;;;;;;;;;10473605;28;20021;-81
2022/10/24 07:23:34;;;;;;;6.00;3.40;;;;;;;;;;10472554;28;20091;-79
2022/10/24 07:28:36;;;;;;;5.63;3.70;;;;;;;;;;10474195;28;20112;-81
2022/10/24 07:33:38;;;;;;;6.95;5.30;;;;;;;;;;10471728;28;20215;-80
2022/10/24 07:38:39;;;;;;;9.25;4.03;;;;;;;;;;10472664;28;20032;-80
2022/10/24 07:43:40;;;;;;;9.40;5.40;;;;;;;;;;10473551;28;20057;-80
2022/10/24 07:48:41;;;;;;;9.40;7.22;;;;;;;;;;10473463;28;20025;-80
2022/10/24 07:53:42;;;;;;;18.17;14.02;;;;;;;;;;10472140;28;20037;-78
2022/10/24 07:58:44;;;;;;;14.27;11.38;;;;;;;;;;10472450;28;20033;-77
2022/10/24 08:03:45;;;;;;;7.88;4.03;;;;;;;;;;10470207;28;20025;-78
2022/10/24 08:08:47;;;;;;;11.63;7.30;;;;;;;;;;10470228;28;20029;-78
2022/10/24 08:13:48;;;;;;;10.05;4.03;;;;;;;;;;10470421;28;20113;-79
2022/10/24 08:18:50;;;;;;;5.63;3.13;;;;;;;;;;10469938;28;20089;-79
2022/10/24 08:23:54;;;;;;;9.98;4.53;;;;;;;;;;10472718;28;20032;-82
2022/10/24 08:28:56;;;;;;;5.80;3.25;;;;;;;;;;10474976;28;20102;-81
2022/10/24 08:34:00;;;;;;;9.25;3.85;;;;;;;;;;10477203;28;20032;-79
2022/10/24 08:39:14;;;;;;;8.65;2.97;;;;;;;;;;10478191;28;20036;-79
2022/10/24 08:44:23;;;;;;;6.60;3.47;;;;;;;;;;10479498;28;20035;-79
2022/10/24 08:49:33;;;;;;;6.22;4.68;;;;;;;;;;10474511;28;20121;-80
2022/10/24 08:54:36;;;;;;;7.28;3.65;;;;;;;;;;10475010;28;20041;-81
2022/10/24 08:59:38;;;;;;;8.25;4.22;;;;;;;;;;10456370;28;20067;-80
2022/10/24 09:04:41;;;;;;;7.25;2.95;;;;;;;;;;10474906;28;20021;-81
2022/10/24 09:09:45;;;;;;;6.78;3.47;;;;;;;;;;10476918;28;20062;-80
2022/10/24 09:15:25;;;;;;;6.43;2.90;;;;;;;;;;10477107;28;20393;-80
2022/10/24 09:20:32;;;;;;;5.70;2.60;;;;;;;;;;10460676;28;20120;-80
2022/10/24 09:25:35;;;;;;;7.15;3.75;;;;;;;;;;10475514;28;20033;-80
2022/10/24 09:30:36;;;;;;;3.55;2.10;;;;;;;;;;10475688;28;20051;-80
2022/10/24 09:35:37;;;;;;;7.55;2.78;;;;;;;;;;10476125;28;20048;-80
2022/10/24 09:40:57;;;;;;;5.93;2.50;;;;;;;;;;10474462;28;20097;-81
2022/10/24 09:46:01;;;;;;;6.40;2.43;;;;;;;;;;10482641;28;20033;-82
2022/10/24 09:51:41;;;;;;;;;;;;;;;;;;;;;
2022/10/24 09:56:46;;;;;;;8.57;2.38;;;;;;;;;;10495135;28;20024;-80
2022/10/24 10:01:48;;;;;;;4.22;1.80;;;;;;;;;;10487521;28;20119;-80
2022/10/24 10:06:58;;;;;;;7.35;2.17;;;;;;;;;;10486576;28;20029;-82
2022/10/24 10:11:59;;;;;;;5.35;1.55;;;;;;;;;;10479860;28;20031;-82
2022/10/24 10:17:08;;;;;;;6.43;2.00;;;;;;;;;;10480085;28;20025;-81
2022/10/24 10:22:33;;;;;;;5.63;2.22;;;;;;;;;;10481370;28;20053;-81
2022/10/24 10:27:38;;;;;;;5.40;1.95;;;;;;;;;;10478429;28;20044;-81
2022/10/24 10:33:05;;;;;;;10.10;1.50;;;;;;;;;;10478267;28;20026;-83
2022/10/24 10:38:16;;;;;;;7.38;1.80;;;;;;;;;;10467474;28;20036;-81
2022/10/24 10:43:34;;;;;;;6.13;1.92;;;;;;;;;;10485288;28;20032;-82
2022/10/24 10:48:41;;;;;;;7.20;1.70;;;;;;;;;;10485266;28;20064;-81
2022/10/24 10:53:45;;;;;;;4.75;1.80;;;;;;;;;;10483141;28;20025;-81
2022/10/24 10:59:07;;;;;;;6.50;1.70;;;;;;;;;;10482098;28;20124;-79
2022/10/24 11:04:14;;;;;;;7.07;1.73;;;;;;;;;;10428446;28;20037;-79
2022/10/24 11:09:33;;;;;;;3.90;1.45;;;;;;;;;;10476545;28;20033;-79
2022/10/24 11:14:37;;;;;;;3.85;1.60;;;;;;;;;;10476439;28;20040;-79
2022/10/24 11:19:38;;;;;;;5.20;1.67;;;;;;;;;;10477232;28;20021;-79
2022/10/24 11:24:44;;;;;;;5.05;1.88;;;;;;;;;;10490053;22;20037;-83
2022/10/24 11:29:52;;;;;;;4.25;1.92;;;;;;;;;;10441638;28;20060;-80
2022/10/24 11:35:12;;;;;;;5.05;1.52;;;;;;;;;;10432097;28;20525;-81
2022/10/24 11:40:19;;;;;;;5.70;1.50;;;;;;;;;;10427614;28;20029;-84
2022/10/24 11:45:22;;;;;;;7.07;1.30;;;;;;;;;;10411685;28;20043;-85
2022/10/24 11:50:39;;;;;;;4.72;1.80;;;;;;;;;;10408357;28;20475;-88
2022/10/24 12:01:40;;;;;;;4.85;1.80;;;;;;;;;;10421305;28;20360;-87
2022/10/24 12:06:51;;;;;;;4.97;1.40;;;;;;;;;;10410447;28;20029;-85
2022/10/24 12:11:53;;;;;;;;;;;;;;;;;;10408042;28;20017;-84
2022/10/24 12:16:57;;;;;;;6.60;2.15;;;;;;;;;;10411638;28;19905;-84
2022/10/24 12:22:00;;;;;;;6.40;1.55;;;;;;;;;;10412614;28;20032;-84
2022/10/24 12:27:03;;;;;;;6.13;1.60;;;;;;;;;;10422961;28;20029;-84
2022/10/24 12:32:24;;;;;;;5.10;1.40;;;;;;;;;;10437056;28;20026;-85
2022/10/24 12:37:25;;;;;;;5.35;1.50;;;;;;;;;;10420230;28;20080;-85
2022/10/24 12:42:26;;;;;;;3.95;1.42;;;;;;;;;;10411487;28;20511;-85
2022/10/24 12:47:30;;;;;;;4.50;1.77;;;;;;;;;;10411860;28;20112;-86
2022/10/24 12:52:32;;;;;;;5.30;1.65;;;;;;;;;;10422302;28;20427;-81
2022/10/24 12:57:38;;;;;;;6.88;1.98;;;;;;;;;;10424028;28;20029;-81
2022/10/24 13:02:58;;;;;;;5.60;1.60;;;;;;;;;;10426338;28;20056;-84
2022/10/24 13:08:17;;;;;;;9.02;2.65;;;;;;;;;;10454388;28;20021;-84
2022/10/24 13:13:18;;;;;;;7.93;1.65;;;;;;;;;;10455429;28;20028;-84
2022/10/24 13:18:26;;;;;;;5.60;1.98;;;;;;;;;;10431929;28;20025;-85
2022/10/24 13:23:28;;;;;;;4.15;2.03;;;;;;;;;;10413495;28;20479;-84
2022/10/24 13:29:01;;;;;;;7.28;2.35;;;;;;;;;;10448196;28;20049;-83
2022/10/24 13:34:37;;;;;;;5.13;1.73;;;;;;;;;;10446527;28;20068;-83
2022/10/24 13:39:43;;;;;;;5.85;1.50;;;;;;;;;;10398419;28;20038;-84
2022/10/24 14:01:57;;;;;;;3.65;1.45;;;;;;;;;;10319837;28;20054;-83
2022/10/24 14:07:02;;;;;;;4.90;1.52;;;;;;;;;;10428123;28;20048;-84
2022/10/24 14:18:23;;;;;;;4.90;2.22;;;;;;;;;;10384141;28;20021;-86
